Time;durP1;ratioP1;P1;durP2;ratioP2;P2;SDS_P1;SDS_P2;PMS_P1;PMS_P2;Temp;Humidity;BMP_temperature;BMP_pressure;BME280_temperature;BME280_humidity;BME280_pressure;Samples;Min_cycle;Max_cycle;Signal;HPM_P1;HPM_P2
2022/03/13 00:00:36;;;;;;;;;14.00;12.25;;;;;11.73;64.05;100989.03;2452296;27;45423;-86
2022/03/13 00:01:46;;;;;;;;;9.50;8.75;;;;;11.72;64.05;100988.16;2452621;28;44635;-86
2022/03/13 00:02:57;;;;;;;;;8.50;8.00;;;;;11.70;64.09;100990.84;2452221;27;45849;-86
2022/03/13 00:04:08;;;;;;;;;10.75;8.00;;;;;11.71;63.94;100986.44;2451300;28;45259;-86
2022/03/13 00:05:19;;;;;;;;;13.00;11.25;;;;;11.72;63.84;100995.19;2444160;28;46985;-87
2022/03/13 00:06:35;;;;;;;;;15.75;15.75;;;;;11.72;63.89;100992.56;2450785;28;45284;-86
2022/03/13 00:07:47;;;;;;;;;15.00;14.50;;;;;11.70;63.78;100998.72;2445157;28;46406;-87
2022/03/13 00:08:58;;;;;;;;;19.50;16.25;;;;;11.70;63.68;101001.38;2451669;28;45411;-87
2022/03/13 00:10:10;;;;;;;;;10.75;10.50;;;;;11.72;63.90;100996.06;2452006;27;45543;-87
2022/03/13 00:11:20;;;;;;;;;10.00;7.75;;;;;11.70;63.76;100988.19;2452047;27;45359;-87
2022/03/13 00:12:31;;;;;;;;;12.00;10.00;;;;;11.70;63.74;100992.63;2452138;27;45310;-88
2022/03/13 00:13:50;;;;;;;;;13.75;11.25;;;;;11.71;64.01;100989.06;2452143;27;45388;-88
2022/03/13 00:15:05;;;;;;;;;16.25;16.25;;;;;11.70;63.71;100990.84;2451937;27;45467;-88
2022/03/13 00:16:15;;;;;;;;;27.50;24.25;;;;;11.72;63.89;100997.84;2450984;28;45477;-88
2022/03/13 00:17:29;;;;;;;;;21.00;19.75;;;;;11.70;63.78;100993.47;2451559;28;45458;-87
2022/03/13 00:18:46;;;;;;;;;16.50;13.00;;;;;11.72;63.64;100995.19;2452256;28;45235;-88
2022/03/13 00:20:00;;;;;;;;;9.00;8.25;;;;;11.74;63.64;100998.63;2451248;28;48173;-87
2022/03/13 00:21:11;;;;;;;;;17.75;11.75;;;;;11.74;63.74;100991.59;2451325;27;45190;-88
2022/03/13 00:22:21;;;;;;;;;14.25;10.50;;;;;11.74;63.76;100990.72;2451455;28;45470;-88
2022/03/13 00:23:33;;;;;;;;;14.25;11.00;;;;;11.73;63.60;100994.28;2451490;28;44743;-88
2022/03/13 00:24:43;;;;;;;;;9.50;7.50;;;;;11.74;63.78;100988.09;2444269;28;47428;-88
2022/03/13 00:25:54;;;;;;;;;11.50;11.50;;;;;11.74;63.63;100996.00;2451192;28;44778;-87
2022/03/13 00:27:06;;;;;;;;;5.75;5.50;;;;;11.72;64.17;100985.53;2451210;28;47001;-87
2022/03/13 00:28:17;;;;;;;;;11.75;11.75;;;;;11.75;63.63;100988.06;2451878;28;45457;-88
2022/03/13 00:29:29;;;;;;;;;12.00;12.00;;;;;11.74;63.89;100986.34;2451929;28;45341;-91
2022/03/13 00:30:40;;;;;;;;;11.25;10.25;;;;;11.75;63.95;100992.47;2451653;28;45260;-91
2022/03/13 00:31:51;;;;;;;;;11.75;9.75;;;;;11.75;63.72;100993.34;2451344;28;47210;-91
2022/03/13 00:33:02;;;;;;;;;8.75;8.00;;;;;11.74;63.51;100986.34;2451962;28;45426;-88
2022/03/13 00:34:14;;;;;;;;;8.75;8.75;;;;;11.74;63.56;100990.72;2451559;28;46308;-89
2022/03/13 00:35:25;;;;;;;;;9.00;8.00;;;;;11.74;63.89;100990.72;2451721;28;44715;-90
2022/03/13 00:36:35;;;;;;;;;9.75;7.50;;;;;11.73;63.85;100991.66;2451095;28;46949;-89
2022/03/13 00:37:45;;;;;;;;;9.00;8.50;;;;;11.74;63.73;100991.59;2444485;28;44664;-87
2022/03/13 00:38:56;;;;;;;;;8.00;7.50;;;;;11.74;63.23;100991.59;2451434;28;46355;-86
2022/03/13 00:40:07;;;;;;;;;9.00;8.75;;;;;11.74;63.44;100988.97;2451500;28;45197;-86
2022/03/13 00:41:17;;;;;;;;;7.50;7.50;;;;;11.74;63.29;100985.47;2444323;28;47234;-87
2022/03/13 00:42:28;;;;;;;;;10.25;8.25;;;;;11.75;63.54;100987.19;2451663;28;45243;-90
2022/03/13 00:43:38;;;;;;;;;9.25;9.25;;;;;11.77;63.55;100985.38;2450972;28;47028;-89
2022/03/13 00:44:49;;;;;;;;;8.50;8.50;;;;;11.74;63.35;100981.06;2444078;28;45252;-90
2022/03/13 00:46:00;;;;;;;;;10.75;7.50;;;;;11.75;63.43;100985.44;2443163;28;47293;-89
2022/03/13 00:47:10;;;;;;;;;11.00;8.00;;;;;11.75;63.52;100982.81;2443939;28;45508;-91
2022/03/13 00:48:23;;;;;;;;;8.50;7.25;;;;;11.80;63.29;100980.00;2444134;28;46995;-92
2022/03/13 00:49:34;;;;;;;;;11.00;8.00;;;;;11.79;63.26;100980.91;2444881;28;44736;-92
2022/03/13 00:50:45;;;;;;;;;8.50;8.00;;;;;11.80;63.45;100980.00;2450859;28;48136;-91
2022/03/13 00:51:57;;;;;;;;;8.50;8.50;;;;;11.80;63.25;100977.38;2448882;28;45306;-91
2022/03/13 00:53:07;;;;;;;;;10.00;9.50;;;;;11.79;63.17;100978.28;2451479;28;45478;-87
2022/03/13 00:54:18;;;;;;;;;7.50;7.50;;;;;11.81;63.10;100977.31;2452085;28;45411;-86
2022/03/13 00:55:28;;;;;;;;;10.00;8.50;;;;;11.81;63.13;100979.06;2451085;28;47220;-86
2022/03/13 00:56:38;;;;;;;;;6.25;6.25;;;;;11.81;63.11;100976.44;2451478;28;45387;-82
2022/03/13 00:57:49;;;;;;;;;8.00;8.00;;;;;11.80;63.36;100975.56;2451908;27;45458;-81
2022/03/13 00:58:59;;;;;;;;;8.50;6.75;;;;;11.80;63.39;100974.75;2452067;28;45427;-82
2022/03/13 01:00:11;;;;;;;;;10.75;8.25;;;;;11.84;63.36;100975.47;2451790;27;45243;-81
2022/03/13 01:01:21;;;;;;;;;8.00;6.50;;;;;11.82;63.16;100978.19;2451972;27;45356;-81
2022/03/13 01:02:32;;;;;;;;;6.50;5.75;;;;;11.84;63.14;100981.63;2451575;27;45454;-81
2022/03/13 01:03:43;;;;;;;;;7.75;7.50;;;;;11.85;63.29;100979.84;2450215;28;44753;-80
2022/03/13 01:04:54;;;;;;;;;7.50;6.75;;;;;11.85;63.31;100977.22;2451252;28;46079;-80
2022/03/13 01:06:06;;;;;;;;;4.50;4.50;;;;;11.86;63.36;100978.91;2451603;27;45311;-80
2022/03/13 01:07:16;;;;;;;;;11.00;8.50;;;;;11.85;63.12;100971.94;2451783;28;46435;-80
2022/03/13 01:08:27;;;;;;;;;10.75;8.25;;;;;11.87;63.08;100970.97;2451927;28;45216;-80
2022/03/13 01:09:37;;;;;;;;;5.25;5.25;;;;;11.84;63.02;100971.06;2451744;28;46303;-81
2022/03/13 01:10:50;;;;;;;;;7.25;6.50;;;;;11.85;62.88;100967.53;2457005;27;45456;-85
2022/03/13 01:12:00;;;;;;;;;6.00;6.00;;;;;11.85;62.85;100970.19;2453780;27;45436;-84
2022/03/13 01:13:11;;;;;;;;;6.00;6.00;;;;;11.85;63.06;100967.53;2451515;27;46341;-84
2022/03/13 01:14:23;;;;;;;;;7.00;6.75;;;;;11.85;62.91;100967.53;2451627;28;46064;-83
2022/03/13 01:15:35;;;;;;;;;6.50;6.50;;;;;11.86;62.92;100963.97;2452069;28;45222;-82
2022/03/13 01:16:45;;;;;;;;;8.00;4.75;;;;;11.87;63.04;100967.47;2451594;28;46459;-82
2022/03/13 01:17:56;;;;;;;;;7.25;5.75;;;;;11.87;63.18;100963.09;2451861;28;45160;-82
2022/03/13 01:19:08;;;;;;;;;6.75;6.00;;;;;11.87;62.89;100963.09;2451787;28;46350;-82
2022/03/13 01:20:22;;;;;;;;;7.00;7.00;;;;;11.88;63.00;100958.66;2451769;27;45222;-82
2022/03/13 01:21:37;;;;;;;;;7.75;6.00;;;;;11.89;62.79;100957.75;2451206;27;45607;-82
2022/03/13 01:22:50;;;;;;;;;10.50;7.50;;;;;11.88;62.97;100956.88;2451601;28;44703;-83
2022/03/13 01:24:01;;;;;;;;;6.50;6.00;;;;;11.89;62.74;100958.63;2451397;27;45436;-82
2022/03/13 01:25:13;;;;;;;;;5.75;5.75;;;;;11.87;62.76;100949.91;2451797;28;45225;-83
2022/03/13 01:26:23;;;;;;;;;11.00;8.25;;;;;11.90;62.76;100955.03;2451686;27;45221;-83
2022/03/13 01:27:35;;;;;;;;;6.75;6.50;;;;;11.88;62.77;100948.13;2451890;28;45230;-83
2022/03/13 01:28:46;;;;;;;;;8.50;7.50;;;;;11.88;62.79;100948.97;2451410;27;45252;-83
2022/03/13 01:29:58;;;;;;;;;7.50;6.25;;;;;11.88;62.51;100948.97;2450810;28;45312;-84
2022/03/13 01:31:08;;;;;;;;;6.50;6.50;;;;;11.87;62.76;100933.25;2451034;28;45382;-84
2022/03/13 01:32:18;;;;;;;;;6.00;6.00;;;;;11.88;62.68;100935.81;2451317;27;44729;-84
2022/03/13 01:33:29;;;;;;;;;8.50;8.00;;;;;11.88;62.56;100940.22;2451241;28;46157;-83
2022/03/13 01:34:48;;;;;;;;;6.50;6.00;;;;;11.88;62.46;100940.22;2451519;28;45421;-83
2022/03/13 01:35:58;;;;;;;;;7.25;5.50;;;;;11.89;62.50;100934.91;2451257;27;45315;-83
2022/03/13 01:37:26;;;;;;;;;8.25;5.75;;;;;11.90;62.42;100947.16;2451497;28;45260;-83
2022/03/13 01:38:37;;;;;;;;;8.25;8.25;;;;;11.90;62.44;100933.97;2451711;28;46139;-83
2022/03/13 01:39:48;;;;;;;;;8.75;8.00;;;;;11.89;62.90;100932.28;2451696;27;45237;-84
2022/03/13 01:40:59;;;;;;;;;7.00;4.75;;;;;11.89;62.64;100928.78;2451563;27;45433;-83
2022/03/13 01:42:10;;;;;;;;;8.50;5.75;;;;;11.89;62.42;100924.38;2450396;28;44735;-83
2022/03/13 01:43:20;;;;;;;;;5.75;5.50;;;;;11.89;62.70;100921.75;2451017;28;45267;-83
2022/03/13 01:44:30;;;;;;;;;7.00;4.25;;;;;11.90;62.70;100919.97;2451681;27;45256;-83
2022/03/13 01:45:41;;;;;;;;;4.75;4.75;;;;;11.90;62.42;100923.44;2451466;28;46271;-84
2022/03/13 01:46:51;;;;;;;;;10.00;6.50;;;;;11.90;62.53;100922.59;2451659;27;45222;-83
2022/03/13 01:48:02;;;;;;;;;8.00;7.00;;;;;11.90;62.57;100925.25;2451597;28;45423;-83
2022/03/13 01:49:12;;;;;;;;;8.75;6.00;;;;;11.91;62.23;100927.81;2451641;28;45168;-83
2022/03/13 01:50:24;;;;;;;;;8.00;7.00;;;;;11.91;62.35;100924.31;2451216;27;45171;-83
2022/03/13 01:51:35;;;;;;;;;6.00;6.00;;;;;11.91;62.16;100924.31;2451390;27;45487;-83
2022/03/13 01:52:48;;;;;;;;;10.25;7.50;;;;;11.91;62.11;100917.28;2451091;28;46491;-89
2022/03/13 01:54:02;;;;;;;;;7.75;6.25;;;;;11.91;62.45;100922.53;2460640;27;44771;-90
2022/03/13 01:55:13;;;;;;;;;7.50;7.50;;;;;11.90;62.05;100918.19;2454332;27;47151;-88
2022/03/13 01:56:24;;;;;;;;;8.00;7.25;;;;;11.90;62.31;100919.97;2463565;27;45285;-89
2022/03/13 01:57:37;;;;;;;;;7.00;6.50;;;;;11.87;61.79;100915.66;2464328;27;46402;-90
2022/03/13 01:58:50;;;;;;;;;10.25;7.75;;;;;11.89;62.10;100919.09;2441738;28;45246;-89
2022/03/13 02:00:00;;;;;;;;;8.00;8.00;;;;;11.90;62.26;100915.53;2446570;28;47322;-89
2022/03/13 02:01:11;;;;;;;;;6.75;6.00;;;;;11.89;62.05;100910.34;2451175;28;45349;-89
2022/03/13 02:02:22;;;;;;;;;6.00;6.00;;;;;11.91;62.24;100908.50;2450000;28;48308;-85
2022/03/13 02:03:32;;;;;;;;;7.75;7.25;;;;;11.88;62.52;100917.38;2450812;28;45286;-85
2022/03/13 02:04:43;;;;;;;;;7.75;7.75;;;;;11.88;62.14;100909.47;2443021;28;47379;-84
2022/03/13 02:05:54;;;;;;;;;8.50;6.75;;;;;11.88;62.33;100906.84;2443240;28;45301;-86
2022/03/13 02:07:04;;;;;;;;;9.00;7.75;;;;;11.88;62.16;100908.59;2450840;28;46376;-90
2022/03/13 02:08:22;;;;;;;;;7.75;7.75;;;;;11.88;62.15;100904.19;2450739;28;45181;-90
2022/03/13 02:09:34;;;;;;;;;9.75;9.25;;;;;11.85;62.05;100901.72;2450959;28;45531;-91
2022/03/13 02:10:44;;;;;;;;;7.00;6.00;;;;;11.83;62.10;100903.50;2455536;27;45245;-91
2022/03/13 02:11:55;;;;;;;;;8.25;7.75;;;;;11.81;62.05;100906.19;2450343;27;47010;-90
2022/03/13 02:13:06;;;;;;;;;8.00;7.50;;;;;11.81;61.76;100900.94;2443336;28;44795;-91
2022/03/13 02:14:20;;;;;;;;;9.50;7.75;;;;;11.78;62.00;100897.53;2450757;28;45512;-90
2022/03/13 02:15:32;;;;;;;;;10.00;8.00;;;;;11.75;61.56;100893.28;2470014;27;44752;-90
2022/03/13 02:16:44;;;;;;;;;5.75;5.50;;;;;11.72;61.57;100896.00;2457364;27;47417;-89
2022/03/13 02:17:54;;;;;;;;;6.75;6.75;;;;;11.73;61.97;100900.34;2443867;28;45351;-90
2022/03/13 02:19:06;;;;;;;;;9.25;7.00;;;;;11.69;62.10;100893.47;2443532;28;48424;-89
2022/03/13 02:20:22;;;;;;;;;6.75;6.75;;;;;11.66;61.58;100894.44;2450636;28;45305;-89
2022/03/13 02:21:48;;;;;;;;;6.50;6.50;;;;;11.64;62.10;100892.78;2443993;28;46132;-88
2022/03/13 02:23:05;;;;;;;;;7.75;7.25;;;;;11.60;62.09;100889.41;2451093;28;44697;-87
2022/03/13 02:24:17;;;;;;;;;8.50;7.75;;;;;11.57;62.00;100889.50;2450360;28;48635;-88
2022/03/13 02:25:34;;;;;;;;;6.50;6.50;;;;;11.54;61.78;100879.94;2451040;28;45250;-89
2022/03/13 02:27:01;;;;;;;;;8.75;7.00;;;;;11.52;61.84;100892.28;2451195;28;45395;-89
2022/03/13 02:28:13;;;;;;;;;10.00;8.25;;;;;11.49;61.91;100887.13;2451505;27;45491;-88
2022/03/13 02:29:24;;;;;;;;;6.75;6.75;;;;;11.42;62.04;100883.84;2451220;27;45208;-88
2022/03/13 02:30:34;;;;;;;;;10.50;10.00;;;;;11.41;61.87;100879.50;2450382;28;45504;-88
2022/03/13 02:31:45;;;;;;;;;9.00;9.00;;;;;11.40;61.65;100879.56;2450564;28;45712;-87
2022/03/13 02:32:55;;;;;;;;;8.75;6.25;;;;;11.36;61.96;100876.16;2450066;28;45178;-87
2022/03/13 02:34:10;;;;;;;;;7.25;7.25;;;;;11.36;61.93;100878.78;2443128;28;47005;-87
2022/03/13 02:35:20;;;;;;;;;12.25;8.75;;;;;11.32;61.97;100874.53;2449960;28;45412;-86
2022/03/13 02:36:31;;;;;;;;;9.25;9.00;;;;;11.32;61.91;100867.53;2450922;28;46292;-87
2022/03/13 02:37:41;;;;;;;;;9.00;8.50;;;;;11.28;62.25;100863.28;2450817;27;45331;-86
2022/03/13 02:38:51;;;;;;;;;9.00;9.00;;;;;11.25;62.01;100872.13;2451099;28;45655;-87
2022/03/13 02:40:04;;;;;;;;;8.25;8.25;;;;;11.23;62.09;100873.09;2451312;27;44700;-86
2022/03/13 02:41:15;;;;;;;;;8.25;8.25;;;;;11.21;62.21;100873.13;2450911;27;46156;-86
2022/03/13 02:42:25;;;;;;;;;10.25;9.50;;;;;11.19;62.36;100863.56;2454971;27;45148;-87
2022/03/13 02:43:36;;;;;;;;;7.50;7.25;;;;;11.18;62.07;100867.13;2451004;28;45231;-85
2022/03/13 02:44:49;;;;;;;;;9.75;9.75;;;;;11.15;61.91;100868.09;2451169;28;45255;-85
2022/03/13 02:45:59;;;;;;;;;10.75;9.00;;;;;11.11;62.04;100862.06;2449980;28;47220;-85
2022/03/13 02:47:10;;;;;;;;;9.25;9.00;;;;;11.10;62.35;100865.63;2443268;28;45205;-85
2022/03/13 02:48:21;;;;;;;;;12.00;9.00;;;;;11.07;61.77;100860.44;2449987;28;45358;-85
2022/03/13 02:49:33;;;;;;;;;10.00;10.00;;;;;11.04;62.31;100865.81;2447647;28;45416;-85
2022/03/13 02:50:43;;;;;;;;;10.75;9.50;;;;;11.02;62.13;100868.50;2450257;27;46409;-86
2022/03/13 02:51:56;;;;;;;;;8.75;8.75;;;;;11.00;62.33;100865.06;2451255;27;45282;-84
2022/03/13 02:53:08;;;;;;;;;8.75;8.75;;;;;10.98;62.25;100866.88;2450568;27;45512;-83
2022/03/13 02:54:19;;;;;;;;;10.00;9.00;;;;;10.94;61.86;100859.97;2450359;27;45507;-83
2022/03/13 02:55:31;;;;;;;;;7.75;7.50;;;;;10.94;62.16;100864.41;2450328;28;45377;-83
2022/03/13 02:56:42;;;;;;;;;8.75;7.75;;;;;10.90;62.27;100861.00;2450859;28;45248;-82
2022/03/13 02:57:53;;;;;;;;;10.00;9.00;;;;;10.88;62.14;100857.56;2450894;28;45516;-82
2022/03/13 02:59:04;;;;;;;;;8.25;8.25;;;;;10.86;62.55;100856.75;2450592;27;45541;-82
2022/03/13 03:00:17;;;;;;;;;8.00;8.00;;;;;10.83;62.36;100856.84;2450596;28;46302;-82
2022/03/13 03:01:28;;;;;;;;;11.75;11.00;;;;;10.82;62.43;100855.13;2451240;27;45286;-82
2022/03/13 03:02:38;;;;;;;;;11.00;11.00;;;;;10.80;62.31;100858.66;2450802;28;46158;-85
2022/03/13 03:03:49;;;;;;;;;11.00;11.00;;;;;10.79;62.52;100858.72;2451071;28;45346;-85
2022/03/13 03:05:03;;;;;;;;;10.00;9.25;;;;;10.76;62.40;100858.81;2454858;27;45574;-85
2022/03/13 03:06:14;;;;;;;;;9.25;8.25;;;;;10.73;62.48;100853.66;2451777;27;45291;-85
2022/03/13 03:07:24;;;;;;;;;11.50;10.50;;;;;10.69;62.62;100852.91;2449554;28;45353;-84
2022/03/13 03:08:37;;;;;;;;;9.25;9.25;;;;;10.68;62.66;100852.03;2449815;28;45291;-84
2022/03/13 03:09:48;;;;;;;;;10.00;8.50;;;;;10.67;62.42;100852.06;2449937;28;45508;-85
2022/03/13 03:10:58;;;;;;;;;11.75;10.00;;;;;10.65;62.54;100849.50;2456478;27;45442;-85
2022/03/13 03:12:09;;;;;;;;;11.50;10.50;;;;;10.63;62.64;100851.31;2453271;27;45569;-85
2022/03/13 03:13:20;;;;;;;;;9.25;9.25;;;;;10.63;62.81;100853.09;2450802;27;45310;-85
2022/03/13 03:14:31;;;;;;;;;11.75;9.00;;;;;10.63;62.78;100864.47;2450686;27;46250;-85
2022/03/13 03:15:42;;;;;;;;;12.50;10.75;;;;;10.59;62.73;100860.22;2450607;28;45370;-85
2022/03/13 03:16:54;;;;;;;;;9.75;8.00;;;;;10.58;62.90;100861.13;2450853;28;45359;-82
2022/03/13 03:18:09;;;;;;;;;13.75;10.00;;;;;10.55;62.64;100854.19;2451006;27;45301;-82
2022/03/13 03:19:19;;;;;;;;;11.00;10.00;;;;;10.53;62.78;100850.75;2450611;27;46146;-84
2022/03/13 03:20:31;;;;;;;;;12.75;12.00;;;;;10.54;62.85;100857.72;2450643;28;44684;-84
2022/03/13 03:21:42;;;;;;;;;12.00;9.50;;;;;10.51;62.94;100852.56;2450698;27;46420;-89
2022/03/13 03:22:53;;;;;;;;;13.00;11.75;;;;;10.50;62.96;100856.06;2451002;27;45196;-89
2022/03/13 03:24:13;;;;;;;;;12.50;12.00;;;;;10.51;62.79;100852.56;2450561;27;46358;-89
2022/03/13 03:25:25;;;;;;;;;12.50;11.25;;;;;10.47;63.02;100851.75;2450280;28;45314;-89
2022/03/13 03:26:37;;;;;;;;;12.75;11.50;;;;;10.47;63.03;100853.50;2449875;28;45417;-89
2022/03/13 03:27:48;;;;;;;;;10.25;9.25;;;;;10.47;62.99;100856.16;2450907;28;45454;-90
2022/03/13 03:28:59;;;;;;;;;11.00;11.00;;;;;10.44;62.76;100851.00;2450475;27;46675;-89
2022/03/13 03:30:10;;;;;;;;;5.00;5.00;;;;;10.43;62.98;100854.53;2450182;28;45327;-89
2022/03/13 03:31:21;;;;;;;;;10.75;9.25;;;;;10.43;63.42;100855.41;2450249;28;45342;-90
2022/03/13 03:32:31;;;;;;;;;10.50;9.25;;;;;10.40;62.79;100858.09;2450681;27;45310;-89
2022/03/13 03:33:42;;;;;;;;;13.00;11.75;;;;;10.38;63.52;100841.53;2449971;28;47076;-89
2022/03/13 03:34:53;;;;;;;;;9.50;8.00;;;;;10.38;62.81;100852.03;2442871;28;45261;-89
2022/03/13 03:36:03;;;;;;;;;9.00;9.00;;;;;10.35;63.14;100852.13;2449749;28;46330;-89
2022/03/13 03:37:14;;;;;;;;;10.75;10.50;;;;;10.34;63.20;100853.06;2450807;28;45209;-89
2022/03/13 03:38:24;;;;;;;;;13.75;9.25;;;;;10.33;63.35;100852.19;2450672;27;45168;-90
2022/03/13 03:39:35;;;;;;;;;11.25;9.75;;;;;10.31;63.13;100854.00;2450435;28;45412;-90
2022/03/13 03:40:47;;;;;;;;;11.00;9.00;;;;;10.33;63.15;100853.94;2449994;28;47250;-89
2022/03/13 03:41:58;;;;;;;;;11.25;10.50;;;;;10.29;63.38;100847.06;2450296;28;45413;-89
2022/03/13 03:43:08;;;;;;;;;16.25;12.00;;;;;10.30;63.08;100854.91;2450680;27;45373;-89
2022/03/13 03:44:19;;;;;;;;;11.75;10.50;;;;;10.29;62.93;100852.31;2449801;28;45414;-89
2022/03/13 03:45:31;;;;;;;;;11.75;11.00;;;;;10.27;63.17;100855.00;2450090;28;45618;-89
2022/03/13 03:46:43;;;;;;;;;11.00;9.00;;;;;10.26;63.43;100849.78;2450610;27;45317;-89
2022/03/13 03:47:53;;;;;;;;;11.75;8.75;;;;;10.25;63.36;100848.91;2450656;28;46551;-90
2022/03/13 03:49:04;;;;;;;;;15.00;11.00;;;;;10.23;63.18;100851.59;2450589;28;44635;-89
2022/03/13 03:50:14;;;;;;;;;11.25;9.75;;;;;10.23;63.45;100848.97;2450534;27;45347;-88
2022/03/13 03:51:25;;;;;;;;;11.75;11.75;;;;;10.22;63.31;100852.50;2449965;28;45222;-89
2022/03/13 03:52:35;;;;;;;;;10.25;10.25;;;;;10.23;63.30;100848.09;2442383;28;47374;-89
2022/03/13 03:53:46;;;;;;;;;15.00;10.50;;;;;10.20;63.24;100845.56;2442886;28;45332;-88
2022/03/13 03:54:56;;;;;;;;;10.00;9.00;;;;;10.17;63.56;100843.91;2450125;28;45557;-89
2022/03/13 03:56:06;;;;;;;;;10.25;10.25;;;;;10.19;63.24;100849.13;2450534;27;45400;-89
2022/03/13 03:57:17;;;;;;;;;17.00;12.00;;;;;10.17;63.14;100845.69;2450692;28;46288;-86
2022/03/13 03:58:27;;;;;;;;;11.00;11.00;;;;;10.15;63.61;100850.97;2450784;28;45378;-84
2022/03/13 03:59:38;;;;;;;;;12.00;11.00;;;;;10.15;63.44;100850.97;2450210;28;45291;-84
2022/03/13 04:00:48;;;;;;;;;8.75;8.25;;;;;10.15;63.06;100844.88;2450606;28;45411;-84
2022/03/13 04:01:59;;;;;;;;;13.25;13.00;;;;;10.11;63.54;100844.94;2449797;28;46034;-86
2022/03/13 04:03:09;;;;;;;;;10.25;9.75;;;;;10.10;63.23;100843.22;2442965;28;45332;-86
2022/03/13 04:04:20;;;;;;;;;11.50;10.50;;;;;10.09;63.75;100844.13;2449545;28;46282;-88
2022/03/13 04:05:30;;;;;;;;;11.50;10.75;;;;;10.08;63.74;100838.91;2450262;28;45152;-88
2022/03/13 04:06:41;;;;;;;;;14.50;12.00;;;;;10.07;63.54;100842.47;2450373;28;46315;-87
2022/03/13 04:07:51;;;;;;;;;12.75;9.75;;;;;10.08;63.75;100842.41;2450674;28;45469;-82
2022/03/13 04:09:01;;;;;;;;;12.50;10.75;;;;;10.05;63.42;100841.66;2449878;28;45470;-87
2022/03/13 04:10:12;;;;;;;;;10.00;9.25;;;;;10.06;63.29;100844.22;2449918;28;45259;-87
2022/03/13 04:11:22;;;;;;;;;10.50;10.50;;;;;10.05;63.29;100837.22;2440259;28;45428;-87
2022/03/13 04:12:34;;;;;;;;;11.75;8.50;;;;;10.03;63.70;100836.41;2448253;28;44546;-87
2022/03/13 04:13:44;;;;;;;;;13.00;11.00;;;;;10.03;64.06;100846.94;2449794;28;45509;-87
2022/03/13 04:14:55;;;;;;;;;11.00;11.00;;;;;10.05;63.66;100846.91;2449473;28;45195;-88
2022/03/13 04:16:07;;;;;;;;;12.50;11.00;;;;;10.02;63.66;100839.97;2449746;28;46048;-85
2022/03/13 04:17:18;;;;;;;;;12.25;10.50;;;;;10.02;63.53;100843.44;2450564;28;44747;-86
2022/03/13 04:18:28;;;;;;;;;11.00;10.00;;;;;10.04;63.84;100845.16;2449685;28;47260;-86
2022/03/13 04:19:39;;;;;;;;;12.00;12.00;;;;;10.02;63.91;100850.47;2449937;28;45477;-85
2022/03/13 04:20:49;;;;;;;;;12.00;10.25;;;;;10.02;63.69;100850.47;2449975;28;45299;-86
2022/03/13 04:22:00;;;;;;;;;13.00;10.00;;;;;10.03;63.87;100846.94;2452280;27;45453;-85
2022/03/13 04:23:11;;;;;;;;;14.00;11.00;;;;;10.02;63.83;100840.81;2451888;27;45384;-88
2022/03/13 04:24:22;;;;;;;;;12.00;9.25;;;;;10.03;64.33;100844.31;2451817;27;45373;-88
2022/03/13 04:25:33;;;;;;;;;11.75;10.75;;;;;10.01;64.07;100840.88;2452329;27;45409;-86
2022/03/13 04:26:44;;;;;;;;;9.50;9.50;;;;;10.04;64.14;100853.03;2451439;28;45289;-86
2022/03/13 04:27:57;;;;;;;;;11.00;8.75;;;;;10.05;63.92;100853.00;2451689;28;45620;-86
2022/03/13 04:29:09;;;;;;;;;12.75;8.75;;;;;10.04;63.90;100847.78;2451948;28;44762;-85
2022/03/13 04:30:21;;;;;;;;;15.25;12.00;;;;;10.06;64.30;100851.22;2452187;28;46345;-86
2022/03/13 04:31:32;;;;;;;;;11.00;10.00;;;;;10.05;64.04;100852.16;2451103;28;45247;-87
2022/03/13 04:32:43;;;;;;;;;10.25;9.25;;;;;10.08;64.10;100849.41;2451598;28;45409;-83
2022/03/13 04:33:54;;;;;;;;;9.00;8.75;;;;;10.08;64.16;100858.16;2452227;27;45221;-82
2022/03/13 04:35:04;;;;;;;;;9.00;9.00;;;;;10.09;64.28;100854.66;2452036;27;46174;-81
2022/03/13 04:36:21;;;;;;;;;11.75;11.00;;;;;10.12;64.35;100851.91;2451970;27;45023;-81
2022/03/13 04:37:32;;;;;;;;;9.75;9.75;;;;;10.10;64.12;100856.34;2452144;27;45454;-82
2022/03/13 04:38:42;;;;;;;;;9.75;8.00;;;;;10.13;64.21;100851.00;2452053;28;45400;-82
2022/03/13 04:39:53;;;;;;;;;10.50;10.50;;;;;10.17;64.14;100858.81;2452043;27;45393;-87
2022/03/13 04:41:04;;;;;;;;;11.25;9.75;;;;;10.18;64.20;100855.25;2451453;28;45232;-87
2022/03/13 04:42:14;;;;;;;;;12.75;9.00;;;;;10.18;64.20;100855.25;2450833;28;45449;-87
2022/03/13 04:43:25;;;;;;;;;11.00;9.50;;;;;10.21;64.43;100855.19;2452233;27;45161;-87
2022/03/13 04:44:35;;;;;;;;;16.25;11.25;;;;;10.22;64.28;100859.53;2451888;27;45270;-87
2022/03/13 04:45:46;;;;;;;;;12.75;10.25;;;;;10.25;64.13;100854.16;2452075;27;45210;-86
2022/03/13 04:46:56;;;;;;;;;12.00;8.75;;;;;10.25;63.98;100848.91;2451971;28;45360;-86
2022/03/13 04:48:07;;;;;;;;;10.75;8.75;;;;;10.28;64.02;100848.84;2452129;27;45211;-86
2022/03/13 04:49:17;;;;;;;;;8.50;8.25;;;;;10.27;63.64;100849.75;2451714;27;46333;-84
2022/03/13 04:50:27;;;;;;;;;10.00;9.00;;;;;10.33;64.04;100852.19;2451202;28;45221;-85
2022/03/13 04:51:39;;;;;;;;;8.50;8.50;;;;;10.33;63.85;100846.06;2451959;27;46639;-85
2022/03/13 04:52:49;;;;;;;;;9.50;9.25;;;;;10.33;63.76;100849.56;2450876;28;45468;-85
2022/03/13 04:53:59;;;;;;;;;7.75;7.00;;;;;10.33;63.84;100849.56;2447975;28;45480;-87
2022/03/13 04:55:10;;;;;;;;;4.75;4.75;;;;;10.34;63.57;100848.66;2451094;28;45672;-89
2022/03/13 04:56:20;;;;;;;;;11.25;9.00;;;;;10.36;63.55;100848.59;2444021;28;47157;-90
2022/03/13 04:57:31;;;;;;;;;8.75;7.75;;;;;10.38;63.67;100851.19;2443967;28;44780;-86
2022/03/13 04:58:41;;;;;;;;;9.25;8.75;;;;;10.39;63.46;100852.91;2451301;28;46682;-87
2022/03/13 04:59:51;;;;;;;;;10.25;8.50;;;;;10.40;63.53;100851.97;2451994;27;44759;-87
2022/03/13 05:01:02;;;;;;;;;6.75;6.00;;;;;10.41;63.43;100851.09;2451024;28;45915;-87
2022/03/13 05:02:12;;;;;;;;;8.25;8.00;;;;;10.41;63.43;100843.22;2450991;28;45249;-87
2022/03/13 05:03:23;;;;;;;;;10.00;7.00;;;;;10.41;63.23;100843.22;2451538;28;45281;-86
2022/03/13 05:04:34;;;;;;;;;9.50;9.50;;;;;10.43;63.47;100833.50;2451934;28;44653;-86
2022/03/13 05:05:45;;;;;;;;;9.00;7.00;;;;;10.45;63.21;100834.31;2451177;27;46278;-86
2022/03/13 05:06:57;;;;;;;;;7.00;7.00;;;;;10.48;63.39;100842.13;2451703;28;45218;-90
2022/03/13 05:08:13;;;;;;;;;8.00;7.75;;;;;10.46;63.42;100836.03;2452021;28;45473;-91
2022/03/13 05:09:23;;;;;;;;;6.25;4.00;;;;;10.51;63.16;100836.81;2452004;28;45222;-90
2022/03/13 05:10:37;;;;;;;;;6.25;6.25;;;;;10.50;63.20;100834.16;2454840;27;45226;-85
2022/03/13 05:11:48;;;;;;;;;7.25;7.25;;;;;10.51;63.07;100835.94;2459828;27;44747;-85
2022/03/13 05:12:58;;;;;;;;;11.00;7.75;;;;;10.52;63.12;100829.78;2451342;27;45361;-85
2022/03/13 05:14:09;;;;;;;;;6.50;5.25;;;;;10.54;63.23;100830.59;2451817;28;45412;-85
2022/03/13 05:15:19;;;;;;;;;7.50;6.50;;;;;10.53;63.02;100829.72;2450991;28;47105;-85
2022/03/13 05:16:30;;;;;;;;;7.25;6.00;;;;;10.55;62.69;100825.28;2451270;28;45468;-86
2022/03/13 05:17:41;;;;;;;;;8.00;8.00;;;;;10.55;62.74;100827.91;2451461;28;46210;-84
2022/03/13 05:18:52;;;;;;;;;6.50;6.00;;;;;10.54;63.02;100822.72;2451844;28;45357;-84
2022/03/13 05:20:03;;;;;;;;;6.50;5.00;;;;;10.56;62.96;100829.63;2451576;28;46247;-83
2022/03/13 05:21:14;;;;;;;;;5.50;5.25;;;;;10.55;62.43;100827.91;2451759;27;44666;-83
2022/03/13 05:22:24;;;;;;;;;6.00;4.25;;;;;10.55;62.63;100821.78;2451450;28;45428;-83
2022/03/13 05:23:34;;;;;;;;;5.25;5.00;;;;;10.56;62.35;100828.78;2451771;27;45234;-87
2022/03/13 05:24:46;;;;;;;;;7.25;5.50;;;;;10.54;62.60;100825.34;2450825;28;48121;-89
2022/03/13 05:25:56;;;;;;;;;6.00;6.00;;;;;10.54;62.24;100833.22;2460961;27;45232;-89
2022/03/13 05:27:07;;;;;;;;;5.50;4.75;;;;;10.53;62.38;100834.13;2458035;27;46384;-89
2022/03/13 05:28:17;;;;;;;;;3.75;3.75;;;;;10.52;62.38;100832.41;2451788;28;45437;-86
2022/03/13 05:29:27;;;;;;;;;6.25;4.00;;;;;10.51;62.58;100836.81;2451569;28;46258;-87